Time;durP1;ratioP1;P1;durP2;ratioP2;P2;SDS_P1;SDS_P2;PMS_P1;PMS_P2;Temp;Humidity;BMP_temperature;BMP_pressure;BME280_temperature;BME280_humidity;BME280_pressure;Samples;Min_cycle;Max_cycle;Signal;HPM_P1;HPM_P2
2022/03/18 00:00:52;;;;;;;15.27;7.90;;;;;;;;;;5033217;28;20040;-70
2022/03/18 00:03:18;;;;;;;19.05;9.00;;;;;;;;;;5033041;28;20485;-70
2022/03/18 00:05:44;;;;;;;20.63;8.45;;;;;;;;;;5032968;28;20048;-70
2022/03/18 00:08:10;;;;;;;20.08;9.95;;;;;;;;;;5032875;28;20037;-70
2022/03/18 00:10:36;;;;;;;24.13;9.43;;;;;;;;;;5032868;28;20496;-70
2022/03/18 00:13:03;;;;;;;15.85;8.52;;;;;;;;;;5033165;28;20129;-70
2022/03/18 00:15:29;;;;;;;18.42;8.77;;;;;;;;;;5033081;28;20038;-70
2022/03/18 00:17:55;;;;;;;19.42;8.60;;;;;;;;;;5033531;28;20037;-70
2022/03/18 00:20:21;;;;;;;22.75;9.40;;;;;;;;;;5037285;28;20048;-70
2022/03/18 00:22:48;;;;;;;19.90;9.70;;;;;;;;;;5037001;28;20037;-70
2022/03/18 00:25:15;;;;;;;21.25;9.30;;;;;;;;;;5036736;28;20046;-70
2022/03/18 00:27:42;;;;;;;20.63;9.27;;;;;;;;;;5036917;28;20480;-70
2022/03/18 00:30:09;;;;;;;19.80;9.25;;;;;;;;;;5019379;28;20465;-70
2022/03/18 00:32:37;;;;;;;16.98;8.93;;;;;;;;;;5019716;28;20041;-70
2022/03/18 00:35:03;;;;;;;18.85;9.32;;;;;;;;;;5037031;28;20085;-70
2022/03/18 00:37:29;;;;;;;21.17;9.35;;;;;;;;;;5036588;28;20083;-70
2022/03/18 00:39:55;;;;;;;19.02;9.52;;;;;;;;;;5036996;28;20053;-70
2022/03/18 00:42:21;;;;;;;18.83;8.68;;;;;;;;;;5037066;28;20045;-70
2022/03/18 00:44:48;;;;;;;18.48;9.18;;;;;;;;;;5018769;28;20057;-70
2022/03/18 00:52:43;;;;;;;18.10;8.55;;;;;;;;;;5036672;28;20049;-70
2022/03/18 00:55:10;;;;;;;17.83;8.13;;;;;;;;;;5036523;28;20041;-70
2022/03/18 00:57:36;;;;;;;17.50;8.60;;;;;;;;;;5036677;28;20049;-70
2022/03/18 01:00:03;;;;;;;17.70;7.53;;;;;;;;;;5036781;28;20061;-70
2022/03/18 01:02:29;;;;;;;21.33;8.00;;;;;;;;;;5036183;28;20409;-70
2022/03/18 01:04:55;;;;;;;18.58;7.32;;;;;;;;;;5036443;28;20042;-70
2022/03/18 01:07:21;;;;;;;20.50;8.23;;;;;;;;;;5036453;28;20045;-70
2022/03/18 01:09:47;;;;;;;17.50;7.68;;;;;;;;;;5018937;28;20056;-70
2022/03/18 01:12:13;;;;;;;19.15;7.93;;;;;;;;;;5036195;28;20037;-70
2022/03/18 01:14:39;;;;;;;13.45;7.05;;;;;;;;;;5036115;28;20411;-70
2022/03/18 01:17:05;;;;;;;15.45;7.25;;;;;;;;;;5018392;28;20041;-70
2022/03/18 01:19:31;;;;;;;16.30;7.63;;;;;;;;;;5019264;28;20396;-70
2022/03/18 01:21:57;;;;;;;17.73;7.18;;;;;;;;;;5019900;28;20045;-70
2022/03/18 01:24:23;;;;;;;12.35;7.05;;;;;;;;;;5001986;28;20111;-70
2022/03/18 01:26:49;;;;;;;13.10;6.88;;;;;;;;;;5035852;28;20056;-70
2022/03/18 01:29:15;;;;;;;16.67;6.53;;;;;;;;;;5035404;28;20538;-70
2022/03/18 01:31:42;;;;;;;18.17;7.95;;;;;;;;;;5035331;28;20120;-70
2022/03/18 01:34:08;;;;;;;19.98;8.63;;;;;;;;;;5035696;28;20124;-70
2022/03/18 01:36:34;;;;;;;24.45;7.75;;;;;;;;;;5035946;28;20411;-70
2022/03/18 01:39:01;;;;;;;17.17;7.47;;;;;;;;;;5035010;28;20065;-70
2022/03/18 01:41:27;;;;;;;20.80;7.63;;;;;;;;;;5035669;28;20055;-70
2022/03/18 01:43:53;;;;;;;22.92;7.93;;;;;;;;;;5035417;28;20041;-70
2022/03/18 01:46:19;;;;;;;19.45;7.90;;;;;;;;;;5035369;28;20068;-70
2022/03/18 01:48:45;;;;;;;19.10;8.00;;;;;;;;;;5035348;28;20489;-70
2022/03/18 01:51:15;;;;;;;22.73;7.70;;;;;;;;;;5035487;28;20116;-70
2022/03/18 01:53:43;;;;;;;32.35;9.10;;;;;;;;;;5035301;28;20060;-70
2022/03/18 01:56:09;;;;;;;17.75;7.05;;;;;;;;;;5017732;28;20408;-70
2022/03/18 01:58:36;;;;;;;14.90;7.68;;;;;;;;;;5017599;28;20045;-70
2022/03/18 02:01:02;;;;;;;13.93;7.03;;;;;;;;;;5000858;28;20046;-70
2022/03/18 02:03:28;;;;;;;12.52;6.47;;;;;;;;;;5017578;28;20106;-70
2022/03/18 02:05:54;;;;;;;14.38;7.78;;;;;;;;;;5035360;28;20038;-70
2022/03/18 02:08:20;;;;;;;17.70;7.70;;;;;;;;;;5035183;28;20052;-70
2022/03/18 02:10:47;;;;;;;20.33;7.90;;;;;;;;;;5017549;28;20041;-70
2022/03/18 02:13:13;;;;;;;16.63;8.07;;;;;;;;;;5034928;28;20572;-70
2022/03/18 02:15:39;;;;;;;17.63;7.93;;;;;;;;;;5034695;28;20500;-70
2022/03/18 02:18:06;;;;;;;18.73;8.75;;;;;;;;;;5017500;28;20072;-70
2022/03/18 02:20:35;;;;;;;15.20;7.13;;;;;;;;;;5035126;28;20515;-69
2022/03/18 02:23:02;;;;;;;18.17;7.57;;;;;;;;;;5034933;28;20107;-70
2022/03/18 02:25:28;;;;;;;17.55;8.23;;;;;;;;;;5035044;28;20088;-70
2022/03/18 02:27:56;;;;;;;15.57;6.90;;;;;;;;;;5017096;28;20060;-70
2022/03/18 02:30:23;;;;;;;15.13;6.30;;;;;;;;;;5034924;28;20045;-70
2022/03/18 02:32:49;;;;;;;18.73;8.90;;;;;;;;;;5000577;28;20049;-70
2022/03/18 02:35:15;;;;;;;21.30;8.80;;;;;;;;;;5034609;28;20042;-70
2022/03/18 02:37:41;;;;;;;20.23;7.75;;;;;;;;;;5034525;28;20057;-70
2022/03/18 02:40:07;;;;;;;32.85;10.07;;;;;;;;;;5016623;28;20504;-70
2022/03/18 02:42:34;;;;;;;25.95;8.68;;;;;;;;;;5033042;28;20045;-70
2022/03/18 02:45:00;;;;;;;19.77;7.35;;;;;;;;;;5034610;28;20045;-70
2022/03/18 02:47:27;;;;;;;19.27;7.65;;;;;;;;;;5034645;28;20119;-71
2022/03/18 02:49:53;;;;;;;17.73;8.15;;;;;;;;;;5034420;28;20046;-70
2022/03/18 02:52:19;;;;;;;19.17;8.50;;;;;;;;;;5034592;28;20044;-70
2022/03/18 02:54:45;;;;;;;18.98;8.57;;;;;;;;;;5034158;28;20045;-70
2022/03/18 02:57:12;;;;;;;23.70;8.30;;;;;;;;;;5016337;28;20096;-70
2022/03/18 02:59:38;;;;;;;14.68;7.93;;;;;;;;;;5000107;28;20061;-70
2022/03/18 03:02:04;;;;;;;20.75;8.85;;;;;;;;;;5034344;28;20053;-70
2022/03/18 03:04:30;;;;;;;19.80;9.00;;;;;;;;;;5016289;28;20501;-70
2022/03/18 03:09:41;;;;;;;20.10;8.82;;;;;;;;;;5032857;28;20413;-70
2022/03/18 03:12:07;;;;;;;19.02;9.23;;;;;;;;;;5016213;28;20054;-70
2022/03/18 03:14:34;;;;;;;21.05;9.75;;;;;;;;;;5033955;28;20049;-70
2022/03/18 03:17:00;;;;;;;22.00;10.38;;;;;;;;;;5033866;28;20053;-70
2022/03/18 03:19:26;;;;;;;20.05;9.25;;;;;;;;;;5032287;28;20052;-70
2022/03/18 03:21:52;;;;;;;21.00;9.48;;;;;;;;;;5034041;28;20041;-70
2022/03/18 03:24:18;;;;;;;20.83;9.00;;;;;;;;;;5033353;28;20072;-70
2022/03/18 03:26:44;;;;;;;18.48;8.52;;;;;;;;;;5033727;28;20084;-70
2022/03/18 03:29:10;;;;;;;20.58;10.13;;;;;;;;;;5033675;28;20045;-70
2022/03/18 03:31:36;;;;;;;19.33;8.68;;;;;;;;;;5033592;28;20041;-70
2022/03/18 03:34:02;;;;;;;17.75;9.07;;;;;;;;;;5033374;28;20045;-70
2022/03/18 03:36:28;;;;;;;23.27;9.98;;;;;;;;;;5033379;28;20473;-70
2022/03/18 03:38:54;;;;;;;17.70;10.07;;;;;;;;;;5033044;28;20053;-70
2022/03/18 03:41:22;;;;;;;19.42;10.52;;;;;;;;;;5033498;28;20041;-70
2022/03/18 03:43:48;;;;;;;26.83;11.68;;;;;;;;;;5033554;28;20107;-70
2022/03/18 03:46:14;;;;;;;17.42;9.65;;;;;;;;;;5033352;28;20049;-70
2022/03/18 03:48:40;;;;;;;20.42;9.70;;;;;;;;;;5033557;28;20073;-70
2022/03/18 03:51:06;;;;;;;20.95;10.10;;;;;;;;;;5015386;28;20408;-70
2022/03/18 03:53:32;;;;;;;22.00;10.68;;;;;;;;;;5032467;28;20136;-70
2022/03/18 03:55:58;;;;;;;20.17;9.85;;;;;;;;;;5032007;28;20053;-70
2022/03/18 03:58:24;;;;;;;22.55;9.57;;;;;;;;;;5033092;28;20045;-70
2022/03/18 04:00:50;;;;;;;17.20;9.00;;;;;;;;;;5033251;28;20116;-70
2022/03/18 04:03:16;;;;;;;20.10;9.07;;;;;;;;;;5033173;28;20038;-70
2022/03/18 04:05:42;;;;;;;22.27;9.98;;;;;;;;;;5033124;28;20068;-70
2022/03/18 04:08:08;;;;;;;26.65;10.90;;;;;;;;;;5015582;28;20535;-70
2022/03/18 04:10:34;;;;;;;26.58;11.60;;;;;;;;;;5033407;28;20554;-70
2022/03/18 04:13:00;;;;;;;29.58;11.70;;;;;;;;;;5032928;28;20046;-70
2022/03/18 04:15:26;;;;;;;31.35;12.85;;;;;;;;;;5033475;28;20052;-70
2022/03/18 04:17:52;;;;;;;31.80;11.52;;;;;;;;;;5033431;28;20384;-70
2022/03/18 04:20:23;;;;;;;32.50;11.60;;;;;;;;;;5033020;28;20575;-70
2022/03/18 04:22:52;;;;;;;37.08;12.63;;;;;;;;;;5031603;28;20092;-70
2022/03/18 04:25:20;;;;;;;36.90;13.18;;;;;;;;;;5032941;28;20136;-70
2022/03/18 04:27:46;;;;;;;29.17;11.55;;;;;;;;;;5032912;28;20049;-70
2022/03/18 04:30:13;;;;;;;33.28;13.93;;;;;;;;;;5033152;28;20072;-70
2022/03/18 04:32:39;;;;;;;29.35;12.73;;;;;;;;;;5034059;28;20048;-70
2022/03/18 04:35:06;;;;;;;26.48;11.52;;;;;;;;;;5032760;28;20116;-70
2022/03/18 04:37:32;;;;;;;24.30;10.43;;;;;;;;;;5015230;28;20061;-70
2022/03/18 04:39:58;;;;;;;38.08;11.93;;;;;;;;;;5031576;28;20488;-70
2022/03/18 04:42:24;;;;;;;33.03;13.10;;;;;;;;;;5032889;28;20049;-70
2022/03/18 04:44:50;;;;;;;34.15;12.60;;;;;;;;;;5032792;28;20040;-70
2022/03/18 04:47:16;;;;;;;53.40;14.23;;;;;;;;;;5032693;28;20076;-70
2022/03/18 04:49:42;;;;;;;34.00;12.85;;;;;;;;;;5031466;28;20489;-70
2022/03/18 04:52:08;;;;;;;54.22;14.45;;;;;;;;;;5032780;28;20045;-70
2022/03/18 04:54:34;;;;;;;38.92;14.38;;;;;;;;;;5032892;28;20049;-70
2022/03/18 04:57:15;;;;;;;32.83;16.40;;;;;;;;;;5032856;28;20074;-70
2022/03/18 04:59:42;;;;;;;29.23;14.55;;;;;;;;;;5032620;28;20443;-70
2022/03/18 05:02:10;;;;;;;37.03;15.65;;;;;;;;;;5032333;28;20099;-70
2022/03/18 05:04:36;;;;;;;21.87;12.10;;;;;;;;;;5034105;28;20041;-70
2022/03/18 05:07:03;;;;;;;34.58;13.45;;;;;;;;;;5036222;28;20073;-70
2022/03/18 05:09:29;;;;;;;40.45;13.90;;;;;;;;;;5036377;28;20062;-70
2022/03/18 05:11:55;;;;;;;40.15;14.07;;;;;;;;;;5036185;28;20049;-70
2022/03/18 05:14:21;;;;;;;38.88;16.90;;;;;;;;;;5036242;28;20046;-70
2022/03/18 05:16:47;;;;;;;40.08;17.33;;;;;;;;;;5035710;28;20042;-70
2022/03/18 05:19:13;;;;;;;50.38;16.55;;;;;;;;;;5036201;28;20052;-70
2022/03/18 05:21:39;;;;;;;59.53;18.92;;;;;;;;;;5018062;28;20068;-70
2022/03/18 05:24:06;;;;;;;60.10;18.55;;;;;;;;;;5001946;28;20049;-70
2022/03/18 05:26:33;;;;;;;63.00;20.10;;;;;;;;;;5035725;28;20489;-70
2022/03/18 05:28:59;;;;;;;59.45;17.65;;;;;;;;;;5035770;28;20090;-70
2022/03/18 05:31:28;;;;;;;46.45;15.60;;;;;;;;;;5017963;28;20052;-70
2022/03/18 05:33:54;;;;;;;59.17;18.38;;;;;;;;;;5035879;28;20045;-70
2022/03/18 05:36:21;;;;;;;58.30;18.60;;;;;;;;;;5035758;28;20131;-70
2022/03/18 05:38:47;;;;;;;73.25;21.02;;;;;;;;;;5036201;28;20061;-70
2022/03/18 05:41:13;;;;;;;79.00;21.02;;;;;;;;;;5034632;28;20049;-70
2022/03/18 05:43:40;;;;;;;105.68;25.08;;;;;;;;;;5035515;28;20103;-70
2022/03/18 05:46:07;;;;;;;56.08;18.27;;;;;;;;;;5035127;28;20071;-70
2022/03/18 05:48:33;;;;;;;69.03;21.35;;;;;;;;;;5035631;28;20049;-70
2022/03/18 05:51:00;;;;;;;126.15;30.95;;;;;;;;;;5017856;28;20075;-70
2022/03/18 05:53:26;;;;;;;115.50;29.50;;;;;;;;;;5035423;28;20052;-70
2022/03/18 05:58:37;;;;;;;115.07;26.88;;;;;;;;;;5035421;28;20049;-70
2022/03/18 06:01:03;;;;;;;109.03;27.48;;;;;;;;;;5035495;28;20034;-70
2022/03/18 06:03:33;;;;;;;151.70;38.00;;;;;;;;;;5017656;28;20475;-70
2022/03/18 06:05:59;;;;;;;109.60;27.25;;;;;;;;;;5034152;28;20504;-70
2022/03/18 06:14:08;;;;;;;117.38;29.90;;;;;;;;;;5001714;28;20045;-70
2022/03/18 06:16:36;;;;;;;199.48;42.92;;;;;;;;;;5034358;28;20132;-71
2022/03/18 06:19:02;;;;;;;93.63;28.52;;;;;;;;;;5017151;28;20459;-70
2022/03/18 06:21:28;;;;;;;115.25;30.77;;;;;;;;;;5033943;28;20085;-71
2022/03/18 06:23:54;;;;;;;82.65;24.75;;;;;;;;;;5035765;28;20050;-70
2022/03/18 06:26:22;;;;;;;56.63;20.92;;;;;;;;;;5034897;28;20528;-70
2022/03/18 06:28:48;;;;;;;261.58;58.15;;;;;;;;;;5017171;28;20050;-71
2022/03/18 06:31:14;;;;;;;160.63;37.25;;;;;;;;;;5035176;28;20125;-70
2022/03/18 06:33:44;;;;;;;91.05;25.58;;;;;;;;;;5034743;28;20045;-70
2022/03/18 06:36:11;;;;;;;161.90;35.88;;;;;;;;;;5034809;28;20056;-71
2022/03/18 06:38:37;;;;;;;111.72;31.60;;;;;;;;;;5016924;28;20081;-71
2022/03/18 06:41:03;;;;;;;105.03;28.67;;;;;;;;;;5017140;28;20437;-71
2022/03/18 06:43:29;;;;;;;108.05;29.23;;;;;;;;;;5034616;28;20045;-70
2022/03/18 06:45:55;;;;;;;61.72;20.63;;;;;;;;;;5033242;28;20404;-71
2022/03/18 06:48:21;;;;;;;64.47;23.60;;;;;;;;;;5034287;28;20103;-71
2022/03/18 06:50:47;;;;;;;58.05;22.13;;;;;;;;;;5034829;28;20454;-70
2022/03/18 06:53:13;;;;;;;85.00;25.63;;;;;;;;;;5034734;28;20124;-71
2022/03/18 06:55:39;;;;;;;84.93;24.17;;;;;;;;;;5034201;28;20056;-71
2022/03/18 06:58:05;;;;;;;39.33;17.98;;;;;;;;;;5034548;28;20046;-70
2022/03/18 07:00:31;;;;;;;49.25;18.40;;;;;;;;;;5016614;28;20041;-71
2022/03/18 07:02:57;;;;;;;36.95;18.75;;;;;;;;;;5034086;28;20041;-71
2022/03/18 07:05:23;;;;;;;37.90;20.60;;;;;;;;;;5016264;28;20461;-71
2022/03/18 07:07:50;;;;;;;41.85;22.30;;;;;;;;;;5034236;28;20049;-71
2022/03/18 07:10:16;;;;;;;46.83;22.08;;;;;;;;;;5034318;28;20061;-71
2022/03/18 07:12:42;;;;;;;39.53;20.45;;;;;;;;;;5033944;28;20179;-71
2022/03/18 07:15:09;;;;;;;46.67;22.67;;;;;;;;;;5033962;28;20037;-71
2022/03/18 07:20:21;;;;;;;40.35;19.25;;;;;;;;;;5033937;28;20103;-71
2022/03/18 07:22:47;;;;;;;40.85;20.05;;;;;;;;;;5033907;28;20049;-70
2022/03/18 07:25:13;;;;;;;29.45;17.17;;;;;;;;;;5033886;28;20048;-71
2022/03/18 07:27:39;;;;;;;34.40;16.90;;;;;;;;;;5032784;28;20427;-71
2022/03/18 07:30:06;;;;;;;32.80;16.90;;;;;;;;;;5032805;28;20057;-71
2022/03/18 07:32:32;;;;;;;32.03;17.02;;;;;;;;;;5032575;28;20480;-71
2022/03/18 07:34:58;;;;;;;31.42;16.15;;;;;;;;;;5033738;28;20049;-71
2022/03/18 07:37:26;;;;;;;32.78;16.40;;;;;;;;;;5015862;28;20397;-71
2022/03/18 07:39:52;;;;;;;33.63;14.73;;;;;;;;;;5034189;28;20042;-71
2022/03/18 07:42:18;;;;;;;43.15;20.17;;;;;;;;;;5035647;28;20662;-70
2022/03/18 07:44:44;;;;;;;27.25;15.05;;;;;;;;;;5034903;28;20473;-71
2022/03/18 07:47:10;;;;;;;28.95;14.68;;;;;;;;;;5036159;28;20037;-72
2022/03/18 07:49:36;;;;;;;29.40;14.80;;;;;;;;;;5033593;28;20040;-71
2022/03/18 07:52:02;;;;;;;25.08;13.50;;;;;;;;;;5033586;28;20457;-71
2022/03/18 07:54:28;;;;;;;32.33;14.25;;;;;;;;;;5033647;28;20049;-71
2022/03/18 07:56:54;;;;;;;23.20;13.25;;;;;;;;;;5032532;28;20075;-71
2022/03/18 07:59:20;;;;;;;22.45;13.02;;;;;;;;;;5033825;28;20046;-71
2022/03/18 08:01:46;;;;;;;24.23;13.80;;;;;;;;;;5033468;28;20041;-71
2022/03/18 08:04:12;;;;;;;24.38;13.95;;;;;;;;;;5033171;28;20041;-71
2022/03/18 08:06:39;;;;;;;28.45;13.77;;;;;;;;;;5033150;28;20084;-71
2022/03/18 08:09:05;;;;;;;25.73;14.63;;;;;;;;;;5033049;28;20557;-71
2022/03/18 08:11:31;;;;;;;27.40;14.75;;;;;;;;;;5015197;28;20124;-71
2022/03/18 08:13:57;;;;;;;25.13;14.02;;;;;;;;;;5015302;28;20084;-71
2022/03/18 08:16:24;;;;;;;26.60;14.38;;;;;;;;;;5032905;28;20077;-71
2022/03/18 08:18:51;;;;;;;28.88;14.75;;;;;;;;;;5033669;28;20046;-71
2022/03/18 08:21:17;;;;;;;27.27;12.90;;;;;;;;;;5033242;28;20037;-71
2022/03/18 08:23:43;;;;;;;30.50;14.38;;;;;;;;;;5033145;28;20046;-71
2022/03/18 08:26:09;;;;;;;25.67;13.15;;;;;;;;;;5015501;28;20053;-71
2022/03/18 08:28:35;;;;;;;71.00;22.27;;;;;;;;;;5032642;28;20041;-71
2022/03/18 08:31:01;;;;;;;35.25;14.52;;;;;;;;;;5033118;28;20122;-71
2022/03/18 08:33:27;;;;;;;44.92;18.13;;;;;;;;;;5031575;28;20046;-71
2022/03/18 08:35:53;;;;;;;32.50;14.50;;;;;;;;;;5033158;28;20049;-71
2022/03/18 08:38:19;;;;;;;26.27;14.35;;;;;;;;;;5032949;28;20065;-71
2022/03/18 08:40:45;;;;;;;27.13;14.77;;;;;;;;;;5018752;28;20400;-71
2022/03/18 08:43:11;;;;;;;27.95;15.18;;;;;;;;;;5036522;28;20122;-71
2022/03/18 08:45:38;;;;;;;27.88;15.38;;;;;;;;;;5018884;28;20080;-71
2022/03/18 08:48:04;;;;;;;32.20;15.55;;;;;;;;;;5019048;28;20053;-71
2022/03/18 08:50:31;;;;;;;34.20;16.35;;;;;;;;;;5036843;28;20091;-71
2022/03/18 08:52:57;;;;;;;30.80;15.40;;;;;;;;;;5035360;28;20081;-71
2022/03/18 08:55:24;;;;;;;24.13;14.45;;;;;;;;;;5036371;28;20055;-71
2022/03/18 08:57:50;;;;;;;27.50;15.60;;;;;;;;;;5036889;28;20041;-71
2022/03/18 09:00:17;;;;;;;31.88;15.40;;;;;;;;;;5019672;28;20048;-72
2022/03/18 09:02:44;;;;;;;26.13;14.50;;;;;;;;;;5036912;28;20045;-71
2022/03/18 09:05:10;;;;;;;34.85;15.82;;;;;;;;;;5036577;28;20045;-71
2022/03/18 09:07:37;;;;;;;45.33;18.58;;;;;;;;;;5036571;28;20037;-71
2022/03/18 09:10:04;;;;;;;31.23;15.10;;;;;;;;;;5036445;28;20042;-71
2022/03/18 09:12:30;;;;;;;30.58;15.30;;;;;;;;;;5036471;28;20042;-71
2022/03/18 09:14:58;;;;;;;22.98;14.27;;;;;;;;;;5036356;28;20073;-71
2022/03/18 09:17:24;;;;;;;27.55;14.77;;;;;;;;;;5036111;28;20539;-71
2022/03/18 09:19:51;;;;;;;33.95;15.73;;;;;;;;;;5036208;28;20481;-71
2022/03/18 09:22:17;;;;;;;39.20;16.13;;;;;;;;;;5035838;28;20136;-71
2022/03/18 09:24:44;;;;;;;28.52;13.20;;;;;;;;;;5018180;28;20042;-72
2022/03/18 09:27:10;;;;;;;31.23;13.18;;;;;;;;;;5035964;28;20045;-72
2022/03/18 09:29:37;;;;;;;26.00;12.68;;;;;;;;;;5036031;28;20432;-71
2022/03/18 09:32:03;;;;;;;27.27;12.70;;;;;;;;;;5018075;28;20053;-71
2022/03/18 09:34:29;;;;;;;32.05;13.30;;;;;;;;;;5018359;28;20060;-71
2022/03/18 09:36:57;;;;;;;32.25;13.73;;;;;;;;;;5035763;28;20129;-71
2022/03/18 09:39:24;;;;;;;34.75;14.70;;;;;;;;;;5035281;28;20056;-71
2022/03/18 09:41:50;;;;;;;31.95;15.20;;;;;;;;;;5035927;28;20053;-71
2022/03/18 09:44:16;;;;;;;37.60;15.23;;;;;;;;;;5035708;28;20045;-72
2022/03/18 09:46:43;;;;;;;37.47;14.15;;;;;;;;;;5035751;28;20596;-71
2022/03/18 09:49:11;;;;;;;26.67;13.93;;;;;;;;;;5035952;28;20049;-71
2022/03/18 09:51:42;;;;;;;57.83;18.63;;;;;;;;;;5034973;28;20049;-71
2022/03/18 09:54:09;;;;;;;32.22;13.15;;;;;;;;;;5035782;28;20057;-71
2022/03/18 09:56:35;;;;;;;41.90;17.08;;;;;;;;;;5035556;28;20132;-70
2022/03/18 09:59:01;;;;;;;46.47;16.33;;;;;;;;;;5035349;28;20386;-71
2022/03/18 10:01:27;;;;;;;25.15;13.35;;;;;;;;;;5035472;28;20046;-71
2022/03/18 10:03:53;;;;;;;37.95;15.13;;;;;;;;;;5033857;28;20389;-71
2022/03/18 10:06:27;;;;;;;27.75;14.07;;;;;;;;;;5034949;28;20085;-71
2022/03/18 10:08:54;;;;;;;65.43;22.17;;;;;;;;;;5035297;28;20184;-71
2022/03/18 10:11:21;;;;;;;24.25;12.57;;;;;;;;;;5035154;28;20049;-72
2022/03/18 10:13:51;;;;;;;59.53;19.73;;;;;;;;;;5035148;28;20124;-71
2022/03/18 10:16:36;;;;;;;29.92;13.63;;;;;;;;;;5034976;28;20056;-71
2022/03/18 10:19:03;;;;;;;32.45;14.57;;;;;;;;;;5034763;28;20041;-72
2022/03/18 10:21:29;;;;;;;22.15;12.32;;;;;;;;;;5035151;28;20131;-71
2022/03/18 10:24:04;;;;;;;41.42;15.55;;;;;;;;;;5035213;28;20048;-71
2022/03/18 10:26:33;;;;;;;30.63;13.48;;;;;;;;;;5035326;28;20129;-71
2022/03/18 10:29:00;;;;;;;;;;;;;;;;;;5035734;28;20045;-71
2022/03/18 10:31:26;;;;;;;28.23;13.10;;;;;;;;;;5034780;28;19936;-71
2022/03/18 10:39:31;;;;;;;30.02;14.20;;;;;;;;;;5034294;28;20049;-71
2022/03/18 10:42:00;;;;;;;31.35;14.07;;;;;;;;;;5034387;28;20040;-71
2022/03/18 10:44:26;;;;;;;38.40;15.32;;;;;;;;;;5034600;28;20060;-71
2022/03/18 10:46:57;;;;;;;28.52;13.88;;;;;;;;;;5034410;28;20050;-71
2022/03/18 10:49:24;;;;;;;26.23;12.63;;;;;;;;;;5034667;28;20041;-70
2022/03/18 10:51:50;;;;;;;30.00;13.85;;;;;;;;;;5034591;28;20416;-71
2022/03/18 10:54:23;;;;;;;26.50;12.90;;;;;;;;;;5036343;28;20041;-71
2022/03/18 10:56:53;;;;;;;23.00;12.93;;;;;;;;;;5034796;28;20054;-71
2022/03/18 10:59:19;;;;;;;30.60;13.70;;;;;;;;;;5035018;28;20055;-71
2022/03/18 11:01:48;;;;;;;26.52;12.63;;;;;;;;;;5034770;28;20041;-71
2022/03/18 11:04:15;;;;;;;26.92;12.85;;;;;;;;;;5034975;28;20045;-71
2022/03/18 11:06:42;;;;;;;29.52;13.07;;;;;;;;;;5034063;28;20050;-72
2022/03/18 11:09:09;;;;;;;43.25;15.45;;;;;;;;;;5034409;28;20056;-71
2022/03/18 11:11:35;;;;;;;20.40;11.18;;;;;;;;;;5034642;28;20099;-71
2022/03/18 11:14:03;;;;;;;64.60;19.88;;;;;;;;;;5034304;28;20501;-71
2022/03/18 11:16:31;;;;;;;50.97;18.23;;;;;;;;;;5016618;28;20077;-71
2022/03/18 11:19:01;;;;;;;30.52;12.63;;;;;;;;;;5034105;28;20098;-71
2022/03/18 11:21:40;;;;;;;51.63;16.05;;;;;;;;;;5034243;28;20072;-72
2022/03/18 11:24:07;;;;;;;24.48;12.07;;;;;;;;;;5034281;28;20079;-71
2022/03/18 11:26:34;;;;;;;23.65;11.27;;;;;;;;;;5032885;28;20049;-72
2022/03/18 11:29:13;;;;;;;24.10;10.82;;;;;;;;;;5034167;28;20045;-72
2022/03/18 11:31:39;;;;;;;25.00;11.80;;;;;;;;;;5033397;28;20094;-72
2022/03/18 11:34:05;;;;;;;23.73;11.00;;;;;;;;;;5033699;28;20460;-72
2022/03/18 11:36:31;;;;;;;16.95;9.05;;;;;;;;;;5015931;28;20133;-72
2022/03/18 11:38:59;;;;;;;32.28;11.85;;;;;;;;;;5033575;28;20076;-72
2022/03/18 11:41:26;;;;;;;26.15;10.45;;;;;;;;;;5033718;28;20055;-72
2022/03/18 11:43:52;;;;;;;23.00;9.93;;;;;;;;;;5032301;28;20050;-71
2022/03/18 11:46:21;;;;;;;28.08;11.52;;;;;;;;;;4999477;28;20095;-73
2022/03/18 11:48:56;;;;;;;18.58;8.75;;;;;;;;;;5033732;28;20037;-72
2022/03/18 11:51:35;;;;;;;18.85;8.55;;;;;;;;;;5033422;28;20050;-71
2022/03/18 11:54:07;;;;;;;31.42;11.07;;;;;;;;;;5033331;28;20132;-72
2022/03/18 11:56:53;;;;;;;19.17;8.43;;;;;;;;;;5033367;28;20096;-72
2022/03/18 11:59:25;;;;;;;22.02;7.72;;;;;;;;;;5033962;28;20148;-72
2022/03/18 12:01:53;;;;;;;23.55;8.63;;;;;;;;;;5033505;28;20072;-72
2022/03/18 12:04:48;;;;;;;36.25;10.85;;;;;;;;;;5033774;28;20045;-72
2022/03/18 12:07:24;;;;;;;18.48;6.65;;;;;;;;;;5033765;28;20049;-72
2022/03/18 12:10:09;;;;;;;39.45;10.60;;;;;;;;;;5033582;28;20041;-72
2022/03/18 12:12:37;;;;;;;32.30;9.35;;;;;;;;;;5034561;28;20124;-72
2022/03/18 12:15:08;;;;;;;13.93;5.68;;;;;;;;;;5038123;28;20056;-72
2022/03/18 12:17:45;;;;;;;8.50;4.28;;;;;;;;;;5039886;28;20041;-72
2022/03/18 12:20:22;;;;;;;13.95;4.78;;;;;;;;;;5040320;28;20072;-73
2022/03/18 12:22:49;;;;;;;12.93;5.15;;;;;;;;;;5039784;28;20504;-73
2022/03/18 12:25:16;;;;;;;9.50;4.70;;;;;;;;;;5022876;28;20128;-73
2022/03/18 12:27:44;;;;;;;37.80;12.27;;;;;;;;;;5041065;28;20115;-74
2022/03/18 12:30:17;;;;;;;34.20;11.15;;;;;;;;;;5039926;28;20060;-73
2022/03/18 12:33:00;;;;;;;21.60;6.90;;;;;;;;;;5039816;28;20083;-73
2022/03/18 12:35:36;;;;;;;13.52;5.55;;;;;;;;;;5039713;28;20095;-73
2022/03/18 12:38:06;;;;;;;10.60;4.63;;;;;;;;;;5018467;28;20500;-73
2022/03/18 12:40:32;;;;;;;25.98;7.80;;;;;;;;;;5019940;28;20038;-73
2022/03/18 12:43:02;;;;;;;9.13;4.78;;;;;;;;;;5020392;28;20073;-73
2022/03/18 12:45:33;;;;;;;11.40;5.25;;;;;;;;;;5019800;28;20089;-73
2022/03/18 12:48:00;;;;;;;17.17;7.47;;;;;;;;;;5019819;28;20395;-73
2022/03/18 12:50:28;;;;;;;17.77;6.85;;;;;;;;;;5019898;28;20405;-73
2022/03/18 12:52:56;;;;;;;13.45;6.15;;;;;;;;;;5019633;28;20053;-73
2022/03/18 12:55:23;;;;;;;21.50;6.88;;;;;;;;;;5019859;28;20052;-73
2022/03/18 12:57:49;;;;;;;12.15;5.38;;;;;;;;;;5019846;28;20149;-73
2022/03/18 13:00:17;;;;;;;18.15;6.68;;;;;;;;;;5018492;28;20069;-73
2022/03/18 13:02:44;;;;;;;19.90;7.25;;;;;;;;;;5019677;28;20072;-72
2022/03/18 13:05:13;;;;;;;13.77;5.60;;;;;;;;;;5018356;28;20121;-73
2022/03/18 13:07:40;;;;;;;13.40;5.30;;;;;;;;;;5019457;28;20057;-73
2022/03/18 13:10:06;;;;;;;22.08;7.35;;;;;;;;;;5019653;28;20053;-73
2022/03/18 13:12:36;;;;;;;17.05;6.30;;;;;;;;;;5019640;28;20053;-73
2022/03/18 13:15:13;;;;;;;23.20;7.20;;;;;;;;;;5019580;28;20465;-73
2022/03/18 13:17:38;;;;;;;23.23;6.38;;;;;;;;;;5019931;28;20085;-72
2022/03/18 13:20:05;;;;;;;13.35;5.40;;;;;;;;;;5019220;28;20085;-73
2022/03/18 13:22:31;;;;;;;9.68;4.32;;;;;;;;;;5019377;28;20065;-73
2022/03/18 13:25:00;;;;;;;9.90;4.30;;;;;;;;;;5019116;28;20506;-72
2022/03/18 13:27:26;;;;;;;12.32;4.57;;;;;;;;;;5016366;28;20097;-73
2022/03/18 13:32:51;;;;;;;20.80;5.40;;;;;;;;;;5016064;28;20053;-73
2022/03/18 13:35:17;;;;;;;15.82;5.65;;;;;;;;;;5016631;28;20050;-73
2022/03/18 13:37:44;;;;;;;15.00;5.20;;;;;;;;;;5020029;28;20053;-73
2022/03/18 13:40:12;;;;;;;14.50;5.53;;;;;;;;;;5036129;28;20053;-72
2022/03/18 13:42:38;;;;;;;13.02;5.40;;;;;;;;;;5036243;28;20582;-73
2022/03/18 13:45:04;;;;;;;11.75;4.25;;;;;;;;;;5019932;28;20045;-73
2022/03/18 13:47:44;;;;;;;24.90;8.10;;;;;;;;;;5037709;28;20095;-73
2022/03/18 13:50:14;;;;;;;15.07;5.88;;;;;;;;;;5036336;28;20099;-73
2022/03/18 13:52:40;;;;;;;11.85;4.47;;;;;;;;;;5035728;28;20045;-73
2022/03/18 13:55:06;;;;;;;12.80;4.30;;;;;;;;;;5035641;28;20409;-72
2022/03/18 13:57:50;;;;;;;9.20;3.58;;;;;;;;;;5035606;28;20049;-72
2022/03/18 14:00:30;;;;;;;17.08;6.60;;;;;;;;;;5035831;28;20053;-72
2022/03/18 14:03:03;;;;;;;22.42;5.97;;;;;;;;;;5035477;28;20052;-72
2022/03/18 14:05:29;;;;;;;16.15;5.55;;;;;;;;;;5035601;28;20045;-72
2022/03/18 14:07:56;;;;;;;21.15;5.55;;;;;;;;;;5038209;28;20042;-73
2022/03/18 14:10:34;;;;;;;11.13;4.28;;;;;;;;;;5035829;28;20128;-72
2022/03/18 14:13:00;;;;;;;;;;;;;;;;;;5036069;28;20483;-70
2022/03/18 14:15:31;;;;;;;11.13;4.05;;;;;;;;;;5018326;28;19978;-72
2022/03/18 14:18:02;;;;;;;11.10;4.20;;;;;;;;;;5036035;28;20128;-72
2022/03/18 14:20:28;;;;;;;13.57;4.28;;;;;;;;;;5034965;28;20037;-71
2022/03/18 14:22:55;;;;;;;14.05;3.83;;;;;;;;;;5035584;28;20136;-71
2022/03/18 14:25:22;;;;;;;13.20;4.43;;;;;;;;;;5034905;28;20061;-71
2022/03/18 14:27:51;;;;;;;9.93;4.05;;;;;;;;;;5035096;28;20080;-72
2022/03/18 14:30:24;;;;;;;17.17;5.63;;;;;;;;;;5035053;28;20049;-72
2022/03/18 14:32:51;;;;;;;18.50;4.95;;;;;;;;;;5017836;28;20060;-73
2022/03/18 14:35:18;;;;;;;13.38;4.72;;;;;;;;;;5035597;28;20096;-72
2022/03/18 14:37:44;;;;;;;8.77;4.13;;;;;;;;;;5034368;28;20050;-72
2022/03/18 14:40:11;;;;;;;15.18;4.57;;;;;;;;;;5017256;28;20042;-72
2022/03/18 14:42:38;;;;;;;14.50;4.53;;;;;;;;;;5034928;28;20429;-72
2022/03/18 14:45:05;;;;;;;12.18;4.57;;;;;;;;;;5034568;28;20078;-72
2022/03/18 14:47:30;;;;;;;10.25;4.38;;;;;;;;;;5034817;28;20045;-72
2022/03/18 14:49:56;;;;;;;10.65;4.53;;;;;;;;;;5034953;28;20106;-72
2022/03/18 14:52:22;;;;;;;11.48;4.57;;;;;;;;;;5017063;28;20049;-72